Time;durP1;ratioP1;P1;durP2;ratioP2;P2;SDS_P1;SDS_P2;PMS_P1;PMS_P2;Temp;Humidity;BMP_temperature;BMP_pressure;BME280_temperature;BME280_humidity;BME280_pressure;Samples;Min_cycle;Max_cycle;Signal;HPM_P1;HPM_P2
2022/03/10 00:02:07;;;;;;;0.68;0.68;;;;;;;25.03;4.07;102659.00;5054450;28;20033;-72
2022/03/10 00:04:36;;;;;;;0.80;0.80;;;;;;;25.04;4.28;102650.59;5054427;28;20021;-72
2022/03/10 00:07:04;;;;;;;0.60;0.60;;;;;;;25.02;4.00;102657.31;5054531;28;20029;-72
2022/03/10 00:09:30;;;;;;;0.65;0.65;;;;;;;25.00;4.15;102649.34;5054471;28;20071;-72
2022/03/10 00:11:56;;;;;;;0.70;0.60;;;;;;;25.03;4.11;102651.63;5052985;28;20493;-72
2022/03/10 00:14:21;;;;;;;0.68;0.68;;;;;;;25.01;3.86;102645.56;5053988;28;20028;-72
2022/03/10 00:16:46;;;;;;;0.77;0.70;;;;;;;25.03;3.94;102650.81;5054249;28;20051;-73
2022/03/10 00:19:16;;;;;;;0.75;0.73;;;;;;;25.03;4.17;102645.34;5054084;28;20083;-72
2022/03/10 00:21:41;;;;;;;0.70;0.70;;;;;;;25.01;4.04;102636.50;5053989;28;20025;-72
2022/03/10 00:24:07;;;;;;;0.70;0.70;;;;;;;25.03;3.71;102648.91;5053890;28;20056;-72
2022/03/10 00:26:32;;;;;;;0.70;0.70;;;;;;;25.05;4.01;102656.88;5054007;28;20029;-71
2022/03/10 00:28:57;;;;;;;0.63;0.63;;;;;;;25.04;3.98;102650.59;5054150;28;20107;-71
2022/03/10 00:31:23;;;;;;;0.70;0.70;;;;;;;25.03;3.97;102653.53;5053623;28;20060;-72
2022/03/10 00:33:48;;;;;;;0.80;0.70;;;;;;;25.06;4.03;102650.31;5053931;28;20029;-71
2022/03/10 00:36:14;;;;;;;0.85;0.85;;;;;;;25.04;3.82;102652.47;5053659;28;20020;-72
2022/03/10 00:38:40;;;;;;;1.05;0.50;;;;;;;25.03;3.83;102648.91;5054015;28;20064;-73
2022/03/10 00:41:05;;;;;;;0.60;0.60;;;;;;;25.04;3.97;102660.66;5053851;28;20478;-73
2022/03/10 00:43:30;;;;;;;0.70;0.70;;;;;;;25.02;3.79;102663.63;5053987;28;20039;-74
2022/03/10 00:45:56;;;;;;;0.60;0.60;;;;;;;25.02;4.05;102671.00;5053496;28;20360;-74
2022/03/10 00:48:21;;;;;;;0.70;0.70;;;;;;;25.05;4.13;102678.75;5035970;28;20029;-73
2022/03/10 00:50:47;;;;;;;0.70;0.70;;;;;;;25.04;3.83;102669.72;5053680;28;20036;-73
2022/03/10 00:53:12;;;;;;;0.80;0.80;;;;;;;25.00;3.96;102670.41;5053616;28;20100;-73
2022/03/10 00:55:37;;;;;;;0.60;0.60;;;;;;;25.06;4.05;102674.94;5053324;28;20044;-73
2022/03/10 00:58:03;;;;;;;0.77;0.77;;;;;;;25.04;3.96;102677.06;5054027;28;20079;-74
2022/03/10 01:00:29;;;;;;;0.80;0.80;;;;;;;25.05;3.96;102668.66;5053582;28;20031;-74
2022/03/10 01:02:57;;;;;;;0.63;0.63;;;;;;;25.03;4.02;102680.91;5053638;28;20052;-74
2022/03/10 01:05:23;;;;;;;0.80;0.80;;;;;;;25.03;3.92;102680.91;5053442;28;20090;-74
2022/03/10 01:07:48;;;;;;;0.70;0.70;;;;;;;25.04;4.05;102682.56;5053558;28;20033;-74
2022/03/10 01:10:14;;;;;;;0.55;0.55;;;;;;;25.03;3.44;102676.25;5053566;28;20025;-74
2022/03/10 01:12:42;;;;;;;0.70;0.70;;;;;;;25.03;3.81;102675.44;5053556;28;20037;-73
2022/03/10 01:15:09;;;;;;;0.60;0.60;;;;;;;25.00;4.03;102675.88;5036056;28;20029;-73
2022/03/10 01:17:35;;;;;;;1.20;0.80;;;;;;;25.01;3.80;102683.00;5053317;28;20025;-74
2022/03/10 01:20:00;;;;;;;0.80;0.80;;;;;;;25.04;3.75;102685.28;5053441;28;20024;-74
2022/03/10 01:22:25;;;;;;;0.70;0.70;;;;;;;25.03;3.40;102680.91;5054673;28;20028;-74
2022/03/10 01:24:51;;;;;;;0.60;0.60;;;;;;;25.03;3.50;102680.91;5057217;28;20041;-73
2022/03/10 01:27:16;;;;;;;0.63;0.63;;;;;;;25.02;3.71;102680.03;5057587;28;20357;-73
2022/03/10 01:29:42;;;;;;;0.60;0.60;;;;;;;25.01;3.34;102680.25;5057601;28;20025;-74
2022/03/10 01:32:07;;;;;;;0.70;0.70;;;;;;;25.03;3.26;102683.63;5039645;28;20032;-73
2022/03/10 01:34:32;;;;;;;0.65;0.65;;;;;;;25.02;3.52;102685.50;5056935;28;20502;-73
2022/03/10 01:36:58;;;;;;;0.80;0.80;;;;;;;24.98;3.44;102683.47;5057335;28;20032;-72
2022/03/10 01:39:24;;;;;;;0.68;0.68;;;;;;;25.02;3.56;102692.88;5057327;28;20078;-72
2022/03/10 01:41:51;;;;;;;0.60;0.60;;;;;;;25.01;3.37;102685.72;5057092;28;20079;-72
2022/03/10 01:44:20;;;;;;;0.80;0.80;;;;;;;25.00;3.41;102690.38;5057136;28;20020;-71
2022/03/10 01:46:45;;;;;;;0.70;0.70;;;;;;;25.01;3.35;102688.47;5056877;28;20076;-72
2022/03/10 01:49:11;;;;;;;0.60;0.60;;;;;;;24.99;3.39;102685.13;5056986;28;20025;-72
2022/03/10 01:51:36;;;;;;;0.80;0.80;;;;;;;25.00;3.46;102692.28;5057032;28;20099;-72
2022/03/10 01:54:03;;;;;;;0.73;0.73;;;;;;;24.98;3.34;102688.94;5056896;28;20451;-72
2022/03/10 01:56:28;;;;;;;0.70;0.70;;;;;;;25.01;3.62;102693.94;5056730;28;20491;-71
2022/03/10 01:58:54;;;;;;;1.17;0.95;;;;;;;25.01;3.53;102693.94;5038693;28;20028;-71
2022/03/10 02:01:19;;;;;;;0.60;0.60;;;;;;;24.93;3.35;102676.78;5056889;28;20040;-72
2022/03/10 02:03:45;;;;;;;0.60;0.60;;;;;;;25.00;3.58;102693.13;5056505;28;20107;-72
2022/03/10 02:06:12;;;;;;;0.60;0.60;;;;;;;24.98;3.44;102689.78;5057299;28;20032;-72
2022/03/10 02:11:21;;;;;;;0.70;0.70;;;;;;;24.99;3.39;102688.72;5056854;28;20512;-72
2022/03/10 02:13:47;;;;;;;0.50;0.50;;;;;;;24.99;3.59;102690.59;5056671;28;20033;-72
2022/03/10 02:18:57;;;;;;;0.70;0.70;;;;;;;25.01;3.56;102691.22;5056592;28;20450;-74
2022/03/10 02:21:22;;;;;;;0.70;0.70;;;;;;;25.03;3.37;102700.03;5056274;28;20033;-74
2022/03/10 02:23:48;;;;;;;0.85;0.70;;;;;;;25.00;3.40;102686.81;5056340;28;20056;-73
2022/03/10 02:26:14;;;;;;;0.70;0.70;;;;;;;25.02;3.40;102692.88;5056575;28;20051;-74
2022/03/10 02:28:39;;;;;;;0.70;0.70;;;;;;;24.96;3.43;102688.31;5056215;28;20471;-73
2022/03/10 02:31:04;;;;;;;0.52;0.52;;;;;;;24.99;3.53;102696.94;5056401;28;20037;-73
2022/03/10 02:33:30;;;;;;;0.65;0.65;;;;;;;25.01;3.43;102694.81;5055467;28;20076;-74
2022/03/10 02:35:55;;;;;;;0.98;0.80;;;;;;;25.02;3.52;102695.63;5056043;28;20024;-73
2022/03/10 02:38:21;;;;;;;0.55;0.55;;;;;;;25.01;3.54;102699.41;5055926;28;20474;-74
2022/03/10 02:40:47;;;;;;;0.80;0.70;;;;;;;25.00;3.41;102700.50;5055988;28;20033;-73
2022/03/10 02:43:12;;;;;;;0.63;0.63;;;;;;;25.01;3.47;102688.47;5056164;28;20029;-73
2022/03/10 02:45:38;;;;;;;0.70;0.70;;;;;;;25.02;3.05;102687.41;5055850;28;20368;-73
2022/03/10 02:48:03;;;;;;;0.70;0.70;;;;;;;25.03;3.36;102691.84;5055933;28;20029;-73
2022/03/10 02:50:29;;;;;;;0.60;0.60;;;;;;;25.02;3.41;102688.25;5056300;28;20258;-74
2022/03/10 02:52:54;;;;;;;0.55;0.55;;;;;;;25.02;3.18;102685.50;5055490;28;20467;-74
2022/03/10 02:55:20;;;;;;;0.70;0.70;;;;;;;25.02;3.33;102684.69;5038098;28;20036;-74
2022/03/10 02:57:45;;;;;;;0.70;0.70;;;;;;;25.00;3.49;102689.56;5055570;28;20024;-74
2022/03/10 03:00:11;;;;;;;0.60;0.60;;;;;;;24.99;2.98;102687.88;5055772;28;20033;-73
2022/03/10 03:02:36;;;;;;;0.68;0.68;;;;;;;25.01;3.37;102686.59;5055675;28;20051;-73
2022/03/10 03:05:02;;;;;;;0.80;0.80;;;;;;;24.99;3.28;102687.88;5055544;28;20028;-74
2022/03/10 03:07:27;;;;;;;0.70;0.70;;;;;;;25.00;3.24;102686.81;5055211;28;20033;-72
2022/03/10 03:09:53;;;;;;;0.65;0.65;;;;;;;25.00;3.28;102681.34;5055676;28;20082;-72
2022/03/10 03:12:18;;;;;;;0.55;0.55;;;;;;;24.98;3.02;102675.28;5055400;28;20029;-72
2022/03/10 03:14:44;;;;;;;0.70;0.70;;;;;;;24.92;3.31;102675.13;5055422;28;20375;-72
2022/03/10 03:17:09;;;;;;;0.70;0.70;;;;;;;24.99;3.07;102679.66;5055314;28;20540;-72
2022/03/10 03:19:34;;;;;;;0.60;0.60;;;;;;;25.01;3.40;102683.00;5055184;28;20040;-72
2022/03/10 03:22:00;;;;;;;0.60;0.60;;;;;;;24.99;3.19;102675.06;5055414;28;20034;-72
2022/03/10 03:24:25;;;;;;;0.57;0.57;;;;;;;25.00;2.89;102675.88;5054683;28;20380;-72
2022/03/10 03:26:50;;;;;;;0.80;0.80;;;;;;;24.92;3.38;102672.41;5055192;28;20021;-72
2022/03/10 03:29:16;;;;;;;0.60;0.60;;;;;;;25.00;2.95;102675.88;5055391;28;20029;-72
2022/03/10 03:31:41;;;;;;;0.70;0.68;;;;;;;24.98;3.17;102680.75;5054815;28;20467;-72
2022/03/10 03:34:10;;;;;;;0.60;0.60;;;;;;;24.98;3.21;102681.56;5055174;28;20036;-72
2022/03/10 03:36:44;;;;;;;0.80;0.80;;;;;;;25.00;2.94;102678.63;5054752;28;20491;-71
2022/03/10 03:39:10;;;;;;;0.57;0.57;;;;;;;24.98;2.89;102683.47;5054619;28;20108;-71
2022/03/10 03:41:35;;;;;;;0.60;0.60;;;;;;;24.98;2.99;102678.84;5055021;28;20056;-72
2022/03/10 03:44:01;;;;;;;0.70;0.60;;;;;;;25.01;2.96;102672.06;5054808;28;20021;-72
2022/03/10 03:46:26;;;;;;;0.73;0.73;;;;;;;24.98;2.93;102678.00;5054769;28;20028;-74
2022/03/10 03:48:52;;;;;;;0.52;0.52;;;;;;;24.95;3.14;102667.53;5054971;28;20060;-74
2022/03/10 03:51:17;;;;;;;0.70;0.70;;;;;;;24.99;2.84;102675.06;5054973;28;20463;-73
2022/03/10 03:53:43;;;;;;;0.60;0.60;;;;;;;24.98;2.83;102676.09;5054618;28;20467;-73
2022/03/10 03:56:08;;;;;;;0.68;0.63;;;;;;;24.98;3.25;102683.47;5054375;28;20026;-73
2022/03/10 03:58:33;;;;;;;0.77;0.77;;;;;;;24.97;3.00;102677.16;5054976;28;20028;-74
2022/03/10 04:00:59;;;;;;;0.68;0.65;;;;;;;24.96;3.01;102677.38;5054525;28;20025;-74
2022/03/10 04:03:24;;;;;;;0.60;0.55;;;;;;;24.98;3.07;102684.31;5054654;28;20025;-74
2022/03/10 04:05:50;;;;;;;0.70;0.70;;;;;;;24.97;3.11;102685.34;5054164;28;20525;-74
2022/03/10 04:08:15;;;;;;;0.70;0.70;;;;;;;24.98;2.87;102678.00;5054266;28;20032;-73
2022/03/10 04:10:41;;;;;;;0.60;0.60;;;;;;;24.97;2.95;102677.16;5054669;28;20021;-73
2022/03/10 04:13:06;;;;;;;0.60;0.60;;;;;;;25.00;2.92;102676.69;5054018;28;20048;-73
2022/03/10 04:15:33;;;;;;;0.60;0.60;;;;;;;25.02;2.82;102674.56;5054303;28;20036;-73
2022/03/10 04:17:58;;;;;;;0.70;0.60;;;;;;;25.02;2.99;102674.56;5053939;28;20458;-73
2022/03/10 04:20:24;;;;;;;0.65;0.65;;;;;;;25.05;3.21;102678.75;5054326;28;20051;-74
2022/03/10 04:22:49;;;;;;;0.68;0.65;;;;;;;24.99;2.82;102660.53;5053727;28;20372;-74
2022/03/10 04:25:15;;;;;;;0.70;0.70;;;;;;;25.06;2.99;102664.84;5054240;28;20025;-74
2022/03/10 04:27:40;;;;;;;0.50;0.50;;;;;;;25.07;3.22;102668.41;5053737;28;20375;-74
2022/03/10 04:30:06;;;;;;;0.57;0.50;;;;;;;25.08;3.19;102667.38;5054097;28;20025;-74
2022/03/10 04:32:42;;;;;;;0.60;0.60;;;;;;;25.11;3.02;102677.81;5053766;28;20021;-74
2022/03/10 04:35:08;;;;;;;0.70;0.70;;;;;;;25.08;3.25;102670.94;5054008;28;20032;-75
2022/03/10 04:37:34;;;;;;;0.75;0.75;;;;;;;25.09;3.13;102674.50;5053864;28;20025;-74
2022/03/10 04:39:59;;;;;;;0.68;0.68;;;;;;;25.11;3.21;102666.88;5053962;28;20474;-74
2022/03/10 04:42:25;;;;;;;0.73;0.73;;;;;;;25.07;3.02;102669.25;5054160;28;20021;-74
2022/03/10 04:44:50;;;;;;;0.60;0.60;;;;;;;25.10;2.82;102665.22;5053704;28;20478;-73
2022/03/10 04:47:16;;;;;;;0.77;0.60;;;;;;;25.09;3.21;102663.53;5053970;28;20364;-73
2022/03/10 04:49:41;;;;;;;0.70;0.70;;;;;;;25.11;3.09;102670.47;5035904;28;20035;-74
2022/03/10 04:52:06;;;;;;;0.65;0.65;;;;;;;25.10;2.88;102676.16;5053577;28;20029;-73
2022/03/10 04:54:32;;;;;;;0.73;0.65;;;;;;;25.11;3.18;102666.88;5053768;28;20021;-74
2022/03/10 04:56:57;;;;;;;0.50;0.50;;;;;;;25.11;3.09;102675.09;5053460;28;20029;-73
2022/03/10 04:59:25;;;;;;;0.52;0.52;;;;;;;25.09;3.20;102674.50;5053467;28;20025;-74
2022/03/10 05:01:50;;;;;;;0.60;0.60;;;;;;;25.12;2.86;102674.03;5053717;28;20041;-73
2022/03/10 05:04:15;;;;;;;0.80;0.80;;;;;;;25.12;3.02;102669.38;5053456;28;20021;-74
2022/03/10 05:06:41;;;;;;;0.70;0.70;;;;;;;25.13;2.98;102675.72;5053626;28;20025;-74
2022/03/10 05:09:06;;;;;;;0.50;0.50;;;;;;;25.14;3.13;102668.34;5053562;28;20021;-74
2022/03/10 05:11:32;;;;;;;0.50;0.50;;;;;;;25.07;2.91;102655.56;5053445;28;20025;-74
2022/03/10 05:13:57;;;;;;;0.60;0.60;;;;;;;25.16;3.05;102671.66;5053085;28;20455;-74
2022/03/10 05:16:22;;;;;;;1.00;0.80;;;;;;;25.16;3.01;102661.56;5053388;28;20029;-73
2022/03/10 05:18:48;;;;;;;0.70;0.70;;;;;;;25.13;3.08;102653.84;5052862;28;20036;-73
2022/03/10 05:21:14;;;;;;;0.80;0.80;;;;;;;25.14;3.02;102666.44;5053484;28;20028;-74
2022/03/10 05:23:40;;;;;;;0.70;0.70;;;;;;;25.17;2.96;102660.50;5053170;28;20492;-74
2022/03/10 05:26:05;;;;;;;0.68;0.63;;;;;;;25.16;3.00;102674.41;5053514;28;20024;-71
2022/03/10 05:28:31;;;;;;;0.70;0.70;;;;;;;25.15;3.23;102662.63;5053197;28;20032;-71
2022/03/10 05:30:56;;;;;;;0.70;0.70;;;;;;;25.18;3.29;102661.31;5052921;28;20032;-71
2022/03/10 05:33:22;;;;;;;0.85;0.70;;;;;;;25.16;3.15;102669.75;5052683;28;20529;-71
2022/03/10 05:35:47;;;;;;;0.60;0.60;;;;;;;25.15;2.94;102668.09;5053615;28;20025;-71
2022/03/10 05:38:13;;;;;;;0.65;0.65;;;;;;;25.19;3.11;102668.47;5053116;28;20028;-71
2022/03/10 05:40:38;;;;;;;0.65;0.60;;;;;;;25.16;2.94;102675.22;5053260;28;20351;-71
2022/03/10 05:43:03;;;;;;;0.50;0.50;;;;;;;25.20;3.12;102678.34;5054115;28;20506;-71
2022/03/10 05:45:29;;;;;;;0.70;0.70;;;;;;;25.19;3.23;102669.31;5060117;28;20033;-71
2022/03/10 05:47:55;;;;;;;0.80;0.63;;;;;;;25.15;3.32;102662.63;5062719;28;20033;-71
2022/03/10 05:50:21;;;;;;;0.60;0.60;;;;;;;25.19;3.08;102669.31;5061205;28;20044;-71
2022/03/10 05:52:47;;;;;;;0.60;0.60;;;;;;;25.21;3.33;102661.69;5064250;28;20075;-72
2022/03/10 05:55:13;;;;;;;0.70;0.70;;;;;;;25.19;3.43;102668.47;5061870;28;20025;-71
2022/03/10 05:57:38;;;;;;;0.80;0.80;;;;;;;25.21;3.50;102669.91;5064773;28;20033;-71
2022/03/10 06:00:05;;;;;;;0.60;0.60;;;;;;;25.21;3.69;102675.38;5065288;28;20036;-71
2022/03/10 06:02:30;;;;;;;0.63;0.63;;;;;;;25.21;3.49;102675.38;5067902;28;20116;-71
2022/03/10 06:04:59;;;;;;;0.75;0.75;;;;;;;25.22;3.58;102674.31;5063837;28;20025;-71
2022/03/10 06:07:25;;;;;;;0.70;0.70;;;;;;;25.23;3.56;102676.00;5065223;28;20080;-71
2022/03/10 06:09:50;;;;;;;1.20;0.90;;;;;;;25.20;3.32;102679.19;5062606;28;20033;-71
2022/03/10 06:12:27;;;;;;;0.77;0.77;;;;;;;25.22;3.74;102674.31;5060174;28;20021;-72
2022/03/10 06:15:00;;;;;;;0.65;0.60;;;;;;;25.27;3.83;102671.75;5060187;28;20045;-71
2022/03/10 06:17:26;;;;;;;0.80;0.80;;;;;;;25.27;3.62;102679.97;5043707;28;20029;-71
2022/03/10 06:19:51;;;;;;;0.73;0.73;;;;;;;25.29;4.02;102679.75;5062539;28;20035;-71
2022/03/10 06:22:17;;;;;;;1.35;0.82;;;;;;;25.27;3.70;102669.03;5058007;28;20033;-71
2022/03/10 06:24:44;;;;;;;0.82;0.70;;;;;;;25.24;3.69;102666.72;5057751;28;20045;-70
2022/03/10 06:27:10;;;;;;;0.73;0.70;;;;;;;25.31;3.67;102669.41;5057717;28;20140;-70
2022/03/10 06:29:37;;;;;;;0.93;0.90;;;;;;;25.19;3.47;102673.97;5056790;28;20024;-71
2022/03/10 06:32:03;;;;;;;0.80;0.80;;;;;;;25.27;3.82;102676.41;5057495;28;20021;-71
2022/03/10 06:34:28;;;;;;;0.82;0.80;;;;;;;25.23;3.74;102676.00;5057760;28;20025;-72
2022/03/10 06:36:56;;;;;;;0.60;0.60;;;;;;;25.29;3.87;102672.38;5056829;28;20083;-71
2022/03/10 06:39:21;;;;;;;0.65;0.65;;;;;;;25.34;4.06;102677.16;5055993;28;20033;-72
2022/03/10 06:41:47;;;;;;;0.70;0.70;;;;;;;25.39;3.84;102676.44;5038552;28;20490;-71
2022/03/10 06:44:12;;;;;;;0.70;0.70;;;;;;;25.41;4.06;102677.06;5055867;28;20021;-71
2022/03/10 06:46:38;;;;;;;0.80;0.80;;;;;;;25.42;4.07;102681.44;5056148;28;20079;-71
2022/03/10 06:49:03;;;;;;;0.80;0.77;;;;;;;25.41;4.13;102688.00;5056137;28;20033;-71
2022/03/10 06:51:28;;;;;;;0.80;0.80;;;;;;;25.39;4.48;102677.28;5055673;28;20399;-71
2022/03/10 06:53:54;;;;;;;0.80;0.80;;;;;;;25.47;4.40;102698.00;5055604;28;20025;-71
2022/03/10 06:56:20;;;;;;;1.02;0.80;;;;;;;25.49;4.30;102687.66;5055570;28;20092;-72
2022/03/10 06:58:45;;;;;;;0.90;0.70;;;;;;;25.53;4.66;102683.41;5055712;28;20025;-71
2022/03/10 07:01:10;;;;;;;0.60;0.60;;;;;;;25.51;4.76;102676.47;5055927;28;20544;-76
2022/03/10 07:03:36;;;;;;;1.10;0.85;;;;;;;25.56;4.89;102693.03;5056582;28;20356;-77
2022/03/10 07:06:02;;;;;;;1.30;1.20;;;;;;;25.52;4.90;102687.19;5056960;28;20024;-77
2022/03/10 07:08:28;;;;;;;3.35;3.05;;;;;;;25.53;5.15;102686.16;5056062;28;20333;-76
2022/03/10 07:10:53;;;;;;;4.18;3.85;;;;;;;25.55;4.94;102685.91;5057802;28;20028;-76
2022/03/10 07:13:19;;;;;;;3.58;3.28;;;;;;;25.64;4.95;102684.50;5057613;28;20017;-77
2022/03/10 07:15:44;;;;;;;1.60;1.50;;;;;;;25.66;5.19;102683.22;5055907;28;20044;-77
2022/03/10 07:18:10;;;;;;;1.35;1.10;;;;;;;25.71;5.32;102684.41;5055517;28;20100;-77
2022/03/10 07:20:35;;;;;;;0.85;0.85;;;;;;;25.64;5.06;102681.78;5055192;28;20029;-77
2022/03/10 07:23:00;;;;;;;0.70;0.70;;;;;;;25.72;5.35;102678.72;5056377;28;20037;-77
2022/03/10 07:25:26;;;;;;;0.52;0.52;;;;;;;25.76;5.52;102690.03;5055739;28;20415;-76
2022/03/10 07:27:51;;;;;;;0.60;0.60;;;;;;;25.74;5.38;102683.94;5055341;28;20033;-76
2022/03/10 07:30:17;;;;;;;0.80;0.80;;;;;;;25.76;5.51;102690.03;5056131;28;20024;-76
2022/03/10 07:32:42;;;;;;;0.60;0.60;;;;;;;25.78;5.65;102693.34;5037917;28;20021;-75
2022/03/10 07:35:08;;;;;;;0.85;0.50;;;;;;;25.68;5.83;102678.34;5055717;28;20017;-76
2022/03/10 07:37:33;;;;;;;1.08;0.60;;;;;;;25.80;5.70;102691.22;5055514;28;20052;-76
2022/03/10 07:39:59;;;;;;;0.45;0.45;;;;;;;25.80;5.85;102696.69;5055450;28;20109;-77
2022/03/10 07:42:25;;;;;;;1.95;0.73;;;;;;;25.82;5.98;102694.59;5054790;28;20464;-76
2022/03/10 07:44:50;;;;;;;0.43;0.43;;;;;;;25.80;6.46;102693.94;5054010;28;20045;-74
2022/03/10 07:47:15;;;;;;;0.47;0.47;;;;;;;25.84;6.10;102681.47;5054053;28;20403;-73
2022/03/10 07:49:41;;;;;;;0.77;0.77;;;;;;;25.86;6.15;102684.81;5054834;28;20041;-73
2022/03/10 07:52:07;;;;;;;0.47;0.43;;;;;;;25.90;6.19;102686.00;5054828;28;20052;-73
2022/03/10 07:54:32;;;;;;;0.88;0.50;;;;;;;25.90;6.44;102685.16;5054505;28;20120;-73
2022/03/10 07:56:58;;;;;;;0.90;0.73;;;;;;;25.94;6.41;102681.78;5055193;28;20044;-73
2022/03/10 07:59:23;;;;;;;0.50;0.50;;;;;;;25.95;6.37;102680.69;5036591;28;20075;-74
2022/03/10 08:01:49;;;;;;;2.92;0.70;;;;;;;25.92;6.46;102678.38;5054421;28;20478;-73
2022/03/10 08:04:15;;;;;;;1.00;0.57;;;;;;;25.87;6.48;102667.28;5054293;28;20102;-73
2022/03/10 08:06:40;;;;;;;2.28;0.50;;;;;;;25.88;6.40;102671.72;5053808;28;20426;-73
2022/03/10 08:09:06;;;;;;;0.82;0.80;;;;;;;25.93;6.60;102671.84;5054363;28;20057;-74
2022/03/10 08:11:32;;;;;;;1.33;0.60;;;;;;;25.96;6.65;102668.66;5054403;28;20452;-74
2022/03/10 08:13:58;;;;;;;0.70;0.70;;;;;;;25.91;6.84;102665.75;5036807;28;20033;-74
2022/03/10 08:16:23;;;;;;;1.38;0.60;;;;;;;25.91;6.48;102665.75;5053731;28;20494;-74
2022/03/10 08:18:49;;;;;;;0.73;0.68;;;;;;;25.89;6.66;102667.91;5053889;28;20048;-73
2022/03/10 08:21:15;;;;;;;0.52;0.52;;;;;;;25.94;6.70;102662.59;5054422;28;20021;-73
2022/03/10 08:23:41;;;;;;;0.50;0.50;;;;;;;25.90;6.70;102653.13;5052955;28;20443;-73
2022/03/10 08:26:06;;;;;;;0.50;0.50;;;;;;;26.01;6.86;102654.25;5053657;28;20033;-72
2022/03/10 08:28:33;;;;;;;0.50;0.50;;;;;;;26.02;6.91;102659.47;5053920;28;20467;-71
2022/03/10 08:30:59;;;;;;;0.40;0.40;;;;;;;26.02;6.97;102659.47;5054195;28;20017;-71
2022/03/10 08:33:24;;;;;;;0.60;0.60;;;;;;;25.97;7.04;102658.53;5053986;28;20021;-71
2022/03/10 08:35:50;;;;;;;0.63;0.60;;;;;;;25.97;7.15;102653.88;5054096;28;20395;-71
2022/03/10 08:38:16;;;;;;;0.60;0.60;;;;;;;25.96;7.27;102657.72;5053436;28;20471;-70
2022/03/10 08:40:42;;;;;;;1.67;0.50;;;;;;;26.03;7.24;102657.59;5035864;28;20094;-71
2022/03/10 08:43:11;;;;;;;0.40;0.40;;;;;;;26.01;7.30;102665.22;5053876;28;20032;-72
2022/03/10 08:45:37;;;;;;;0.50;0.50;;;;;;;26.03;7.34;102655.69;5054038;28;20033;-71
2022/03/10 08:48:03;;;;;;;0.50;0.50;;;;;;;26.05;7.67;102644.50;5053632;28;20463;-72
2022/03/10 08:50:28;;;;;;;0.50;0.50;;;;;;;26.07;7.47;102647.81;5054327;28;20031;-71
2022/03/10 08:52:54;;;;;;;1.10;0.60;;;;;;;25.92;7.75;102634.53;5053086;28;20463;-71
2022/03/10 08:55:19;;;;;;;0.60;0.50;;;;;;;26.00;8.10;102631.50;5053829;28;20108;-71
2022/03/10 08:57:46;;;;;;;0.63;0.50;;;;;;;26.05;7.93;102645.31;5053731;28;20028;-70
2022/03/10 09:00:12;;;;;;;0.50;0.50;;;;;;;26.10;8.00;102643.78;5053684;28;20021;-71
2022/03/10 09:02:40;;;;;;;0.80;0.50;;;;;;;26.09;8.16;102642.09;5053535;28;20031;-72
2022/03/10 09:05:05;;;;;;;0.70;0.50;;;;;;;26.01;8.07;102633.16;5053400;28;20116;-71
2022/03/10 09:07:31;;;;;;;0.50;0.50;;;;;;;26.03;7.93;102647.47;5052879;28;20057;-72
2022/03/10 09:09:57;;;;;;;0.38;0.38;;;;;;;26.10;8.24;102630.09;5053242;28;20040;-71
2022/03/10 09:12:22;;;;;;;0.57;0.50;;;;;;;26.09;8.02;102639.38;5035085;28;20029;-71
2022/03/10 09:14:48;;;;;;;0.30;0.30;;;;;;;26.11;8.12;102639.97;5053026;28;20021;-71
2022/03/10 09:17:13;;;;;;;0.50;0.50;;;;;;;26.13;8.04;102635.91;5053143;28;20025;-71
2022/03/10 09:19:39;;;;;;;0.52;0.40;;;;;;;26.09;7.91;102631.16;5053910;28;20025;-73
2022/03/10 09:22:04;;;;;;;0.43;0.40;;;;;;;26.11;8.11;102631.75;5036701;28;20495;-71
2022/03/10 09:24:31;;;;;;;0.55;0.40;;;;;;;26.10;8.16;102613.66;5054174;28;20041;-72
2022/03/10 09:26:56;;;;;;;0.40;0.40;;;;;;;26.08;8.11;102623.97;5053272;28;20021;-72
2022/03/10 09:29:22;;;;;;;0.40;0.40;;;;;;;26.10;8.21;102619.94;5053228;28;20017;-72
2022/03/10 09:31:47;;;;;;;0.30;0.30;;;;;;;26.11;8.34;102615.28;5052542;28;20467;-71
2022/03/10 09:34:13;;;;;;;0.40;0.40;;;;;;;26.10;8.34;102616.38;5053258;28;20104;-71
2022/03/10 09:36:38;;;;;;;0.40;0.40;;;;;;;26.11;8.47;102615.28;5053177;28;20025;-71
2022/03/10 09:39:04;;;;;;;0.50;0.40;;;;;;;26.07;8.35;102611.38;5053153;28;20024;-72
2022/03/10 09:41:29;;;;;;;0.40;0.40;;;;;;;26.12;8.37;102615.06;5053101;28;20025;-72
2022/03/10 09:43:55;;;;;;;0.30;0.30;;;;;;;26.14;8.27;102614.81;5055867;28;20028;-71
2022/03/10 09:46:21;;;;;;;0.43;0.43;;;;;;;26.12;8.50;102611.50;5056643;28;20025;-71
2022/03/10 09:48:46;;;;;;;0.40;0.40;;;;;;;26.14;8.52;102601.94;5022923;28;20108;-71
2022/03/10 09:51:12;;;;;;;0.30;0.30;;;;;;;26.13;8.67;102594.81;5039843;28;20525;-72
2022/03/10 09:53:37;;;;;;;0.40;0.40;;;;;;;26.16;8.48;102596.22;5039070;28;20028;-72
2022/03/10 09:56:03;;;;;;;0.38;0.38;;;;;;;26.18;8.66;102599.56;5056789;28;20025;-71
2022/03/10 09:58:29;;;;;;;0.30;0.30;;;;;;;26.12;8.76;102595.06;5057997;28;20052;-72
2022/03/10 10:01:02;;;;;;;0.50;0.50;;;;;;;26.11;8.81;102598.84;5056981;28;20029;-71
2022/03/10 10:03:28;;;;;;;0.50;0.50;;;;;;;26.17;8.88;102603.41;5057322;28;20033;-71
2022/03/10 10:06:01;;;;;;;1.70;0.63;;;;;;;26.16;8.91;102597.06;5056538;28;20083;-71
2022/03/10 10:08:26;;;;;;;1.95;0.60;;;;;;;26.18;9.00;102597.69;5056214;28;20075;-72
2022/03/10 10:10:53;;;;;;;1.10;0.75;;;;;;;26.13;9.03;102591.22;5056237;28;20136;-71
2022/03/10 10:13:39;;;;;;;2.28;1.00;;;;;;;26.28;8.90;102599.78;5055576;28;20029;-70
2022/03/10 10:16:14;;;;;;;4.70;1.10;;;;;;;26.25;9.27;102583.84;5055714;28;20036;-71
2022/03/10 10:18:41;;;;;;;2.72;1.13;;;;;;;26.28;9.47;102588.84;5056527;28;20555;-69
2022/03/10 10:21:07;;;;;;;1.95;0.90;;;;;;;26.24;9.95;102595.88;5056877;28;20029;-70
2022/03/10 10:23:34;;;;;;;1.35;0.93;;;;;;;26.26;9.82;102580.03;5056203;28;20106;-73
2022/03/10 10:26:06;;;;;;;2.00;1.00;;;;;;;26.30;9.91;102583.97;5058967;28;20103;-71
2022/03/10 10:28:32;;;;;;;1.65;0.95;;;;;;;26.27;10.03;102587.19;5057096;28;20107;-72
2022/03/10 10:31:02;;;;;;;1.10;0.88;;;;;;;26.29;9.63;102589.69;5057452;28;20025;-72
2022/03/10 10:33:29;;;;;;;0.93;0.70;;;;;;;26.28;9.82;102590.75;5057569;28;20352;-72
2022/03/10 10:36:31;;;;;;;0.73;0.70;;;;;;;26.34;9.92;102592.53;5056445;28;20031;-72
2022/03/10 10:38:58;;;;;;;1.42;0.80;;;;;;;26.29;9.91;102595.16;4975868;28;20030;-71
2022/03/10 10:41:25;;;;;;;1.27;0.77;;;;;;;26.19;9.66;102591.09;4976271;28;20109;-72
2022/03/10 10:44:01;;;;;;;0.52;0.50;;;;;;;26.25;9.79;102592.06;4975670;28;20034;-71
2022/03/10 10:46:32;;;;;;;1.25;0.50;;;;;;;26.24;9.78;102583.00;4975994;28;20474;-70
2022/03/10 10:49:05;;;;;;;2.25;0.85;;;;;;;26.24;9.83;102582.19;4976308;28;20121;-71
2022/03/10 10:51:44;;;;;;;2.03;1.10;;;;;;;26.34;9.77;102587.06;4962304;28;20474;-69
2022/03/10 10:54:25;;;;;;;2.20;0.95;;;;;;;26.32;9.78;102587.28;4978162;28;20038;-72
2022/03/10 10:56:54;;;;;;;1.45;0.90;;;;;;;26.31;9.60;102585.63;4974752;28;20042;-73
2022/03/10 10:59:31;;;;;;;0.85;0.77;;;;;;;26.34;9.80;102581.56;4976104;28;20038;-71
2022/03/10 11:02:12;;;;;;;1.63;0.90;;;;;;;26.30;9.78;102585.84;4975139;28;20363;-70
2022/03/10 11:04:47;;;;;;;1.38;0.80;;;;;;;26.27;9.82;102595.41;4975062;28;20061;-69
2022/03/10 11:07:13;;;;;;;1.00;0.80;;;;;;;26.25;9.81;102583.84;4974932;28;20438;-71
2022/03/10 11:09:39;;;;;;;1.45;0.70;;;;;;;26.32;10.03;102584.56;4975238;28;20105;-71
2022/03/10 11:12:07;;;;;;;0.60;0.60;;;;;;;26.30;10.24;102581.22;4988998;28;20041;-71
2022/03/10 11:14:35;;;;;;;2.47;0.70;;;;;;;26.23;9.95;102575.00;5021312;28;20068;-70
2022/03/10 11:17:01;;;;;;;0.95;0.65;;;;;;;26.24;10.23;102577.53;5056178;28;20364;-69
2022/03/10 11:19:26;;;;;;;0.73;0.60;;;;;;;26.25;10.21;102578.38;5056952;28;20052;-69
2022/03/10 11:22:00;;;;;;;0.82;0.50;;;;;;;26.26;10.21;102579.19;5037782;28;20029;-69
2022/03/10 11:24:40;;;;;;;1.65;0.55;;;;;;;26.29;10.11;102582.28;5021751;28;20136;-72
2022/03/10 11:27:26;;;;;;;1.98;1.05;;;;;;;26.34;10.09;102579.66;5039019;28;20120;-70
2022/03/10 11:29:53;;;;;;;3.08;1.25;;;;;;;26.28;10.04;102582.53;5038386;28;20074;-70
2022/03/10 11:32:28;;;;;;;1.50;0.98;;;;;;;26.27;9.92;102581.69;5059693;28;20025;-70
2022/03/10 11:34:55;;;;;;;1.05;0.95;;;;;;;26.24;10.32;102580.25;5042745;28;20028;-70
2022/03/10 11:37:39;;;;;;;0.70;0.70;;;;;;;26.30;10.05;102570.25;5058263;28;20494;-72